Latest Weather Observations for Alice Springs Airport

IDD60801

Issued at 7:35 am CST Saturday 30 August 2014 (issued every 30 minutes, with the page automatically refreshed every 10 minutes)

About weather observations | Map of weather stations | Latest weather observations for NT | Other Formats
Station Details ID: 015590 Name: ALICE SPRINGS AIRPORT Lat: -23.80 Lon: 133.89 Height: 546.0 m
Data from the previous 72 hours. | See also: Recent months at Alice Springs Airport
Date/Time
CST
Temp
°C
App
Temp
°C
Dew
Point
Rel
Hum
%
Delta-T
°C
Wind Press
QNH
hPa
Press
MSL
hPa
Rain
since 9 am
mm
Dir
 
Spd
km/h
Gust
km/h
Spd
kts
Gust
kts
30/07:30am 6.2 2.4 -3.4 50 3.5 WNW 7 9 4 5 1023.8 1023.0 0.0
30/07:00am 4.5 0.3 -4.0 54 3.0 NW 9 11 5 6 1023.4 1022.7 0.0
30/06:30am 4.7 0.5 -4.1 53 3.1 NNW 9 9 5 5 1023.0 1022.2 0.0
30/06:00am 5.3 1.1 -4.3 50 3.4 WNW 9 11 5 6 1022.9 1022.1 0.0
30/05:30am 5.3 0.7 -4.3 50 3.4 W 11 11 6 6 1022.6 1021.8 0.0
30/05:00am 5.1 0.1 -4.2 51 3.3 W 13 13 7 7 1022.4 1021.6 0.0
30/04:30am 4.7 0.5 -4.1 53 3.1 WNW 9 11 5 6 1022.3 1021.5 0.0
30/04:00am 4.4 -0.2 -4.5 52 3.1 WSW 11 11 6 6 1022.1 1021.3 0.0
30/03:30am 5.5 1.2 -4.4 49 3.5 W 9 11 5 6 1022.0 1021.2 0.0
30/03:00am 5.5 2.7 -3.3 53 3.2 NNE 2 9 1 5 1022.2 1021.4 0.0
30/02:30am 6.7 3.1 -3.3 49 3.7 E 6 7 3 4 1022.3 1021.5 0.0
30/02:00am 6.6 3.9 -2.8 51 3.5 E 2 7 1 4 1022.5 1021.7 0.0
30/01:30am 7.5 5.0 -4.0 44 4.2 CALM 0 0 0 0 1022.7 1021.9 0.0
30/01:00am 8.1 3.9 -4.1 42 4.5 W 9 11 5 6 1022.9 1022.1 0.0
30/12:30am 8.0 4.2 -3.9 43 4.4 WNW 7 9 4 5 1023.0 1022.2 0.0
30/12:00am 8.6 6.1 -3.7 41 4.6 NNW 0 0 0 0 1022.7 1021.9 0.0
 
Date/Time
CST
Temp
°C
App
Temp
°C
Dew
Point
Rel
Hum
%
Delta-T
°C
Wind Press
QNH
hPa
Press
MSL
hPa
Rain
since 9 am
mm
Dir
 
Spd
km/h
Gust
km/h
Spd
kts
Gust
kts
29/11:30pm 10.1 7.7 -2.8 40 5.0 CALM 0 0 0 0 1022.8 1022.0 0.0
29/11:00pm 9.3 7.1 -1.2 48 4.2 CALM 0 2 0 1 1022.8 1022.0 0.0
29/10:30pm 11.7 8.0 -2.7 36 5.7 E 7 7 4 4 1022.9 1022.1 0.0
29/10:00pm 12.5 8.4 -2.8 34 6.1 SE 9 9 5 5 1023.1 1022.3 0.0
29/09:30pm 12.4 9.0 -0.8 40 5.5 S 7 9 4 5 1023.0 1022.2 0.0
29/09:00pm 14.2 10.2 -2.4 31 6.8 E 9 11 5 6 1022.6 1021.8 0.0
29/08:30pm 16.0 12.0 -2.1 29 7.6 E 9 11 5 6 1022.3 1021.5 0.0
29/08:00pm 17.3 13.2 -3.2 24 8.5 E 9 11 5 6 1021.9 1021.1 0.0
29/07:30pm 18.6 14.0 -3.8 21 9.3 E 11 13 6 7 1021.5 1020.7 0.0
29/07:00pm 18.7 14.2 -3.6 22 9.3 E 11 13 6 7 1021.3 1020.5 0.0
29/06:30pm 20.2 15.8 -2.8 21 9.9 E 11 15 6 8 1021.1 1020.3 0.0
29/06:00pm 21.8 16.6 -2.7 19 10.7 E 15 19 8 10 1020.7 1019.9 0.0
29/05:30pm 22.6 18.4 -3.5 17 11.3 E 9 15 5 8 1020.6 1019.8 0.0
29/05:00pm 23.0 16.8 -4.8 15 11.8 E 19 22 10 12 1020.5 1019.7 0.0
29/04:30pm 23.3 18.9 -6.1 13 12.2 SE 9 13 5 7 1020.5 1019.7 0.0
29/04:00pm 23.0 17.5 -5.3 14 11.9 SE 15 24 8 13 1020.5 1019.7 0.0
29/03:30pm 23.3 16.9 -5.1 14 12.0 SE 20 32 11 17 1020.9 1020.1 0.0
29/03:00pm 23.8 17.6 -5.2 14 12.3 ESE 19 33 10 18 1021.2 1020.4 0.0
29/02:30pm 22.9 18.7 -3.7 16 11.5 E 9 15 5 8 1021.4 1020.6 0.0
29/02:00pm 22.4 17.7 -1.8 20 10.8 E 13 24 7 13 1021.8 1020.9 0.0
29/01:30pm 22.7 16.7 -1.5 20 10.9 E 20 30 11 16 1022.2 1021.4 0.0
29/01:00pm 22.7 18.2 -3.3 17 11.3 E 11 15 6 8 1022.9 1022.1 0.0
29/12:30pm 21.9 16.7 -2.5 19 10.7 NE 15 24 8 13 1023.5 1022.8 0.0
29/12:00pm 21.9 15.8 -2.1 20 10.6 ESE 20 33 11 18 1024.2 1023.4 0.0
29/11:30am 21.5 16.4 -2.2 20 10.4 E 15 26 8 14 1024.9 1024.1 0.0
29/11:00am 20.8 15.4 -1.6 22 9.9 ESE 17 24 9 13 1025.4 1024.7 0.0
29/10:30am 19.2 13.6 -0.2 27 8.7 E 19 28 10 15 1025.9 1025.1 0.0
29/10:00am 18.9 13.6 -0.4 27 8.6 E 17 28 9 15 1026.0 1025.2 0.0
29/09:30am 17.6 13.4 -0.7 29 8.0 E 11 15 6 8 1026.3 1025.5 0.0
29/09:00am 15.7 12.7 -1.6 30 7.3 W 4 7 2 4 1026.0 1025.2 0.0
29/08:30am 13.2 9.6 -2.4 34 6.3 WSW 7 9 4 5 1025.9 1025.1 0.0
29/08:00am 10.0 5.8 -3.7 38 5.2 W 9 11 5 6 1025.5 1024.8 0.0
29/07:30am 6.9 2.7 -3.8 46 3.9 NW 9 11 5 6 1025.3 1024.6 0.0
29/07:00am 5.1 0.9 -4.3 50 3.3 WNW 9 9 5 5 1025.1 1024.4 0.0
29/06:30am 5.7 1.4 -4.5 48 3.6 NW 9 9 5 5 1024.9 1024.1 0.0
29/06:00am 5.5 1.2 -4.4 49 3.5 WNW 9 11 5 6 1024.6 1023.8 0.0
29/05:30am 5.2 0.5 -4.9 48 3.5 WNW 11 13 6 7 1024.3 1023.5 0.0
29/05:00am 5.1 0.4 -4.6 49 3.4 WNW 11 13 6 7 1024.0 1023.2 0.0
29/04:30am 5.2 0.1 -4.9 48 3.5 WNW 13 15 7 8 1023.4 1022.7 0.0
29/04:00am 5.8 1.1 -5.1 45 3.8 WNW 11 11 6 6 1023.3 1022.5 0.0
29/03:30am 5.8 1.4 -5.5 44 3.9 W 9 11 5 6 1023.1 1022.3 0.0
29/03:00am 6.1 1.7 -5.4 43 4.0 W 9 11 5 6 1023.1 1022.3 0.0
29/02:30am 6.5 2.1 -5.6 41 4.2 WNW 9 11 5 6 1023.2 1022.4 0.0
29/02:00am 7.5 4.9 -4.7 41 4.4 CALM 0 0 0 0 1023.3 1022.5 0.0
29/01:30am 7.3 4.6 -5.5 40 4.5 CALM 0 0 0 0 1023.4 1022.7 0.0
29/01:00am 7.7 5.2 -4.4 42 4.4 CALM 0 0 0 0 1023.6 1022.9 0.0
29/12:30am 8.6 4.9 -4.5 39 4.8 E 6 7 3 4 1023.8 1023.0 0.0
29/12:00am 8.8 5.1 -4.6 38 4.9 ESE 6 9 3 5 1024.0 1023.2 0.0
 
Date/Time
CST
Temp
°C
App
Temp
°C
Dew
Point
Rel
Hum
%
Delta-T
°C
Wind Press
QNH
hPa
Press
MSL
hPa
Rain
since 9 am
mm
Dir
 
Spd
km/h
Gust
km/h
Spd
kts
Gust
kts
28/11:30pm 10.2 6.5 -4.5 35 5.5 NNE 6 7 3 4 1024.1 1023.3 0.0
28/11:00pm 11.1 8.5 -4.6 33 5.9 CALM 0 0 0 0 1024.0 1023.2 0.0
28/10:30pm 10.2 6.4 -4.1 36 5.4 NNE 7 9 4 5 1024.2 1023.4 0.0
28/10:00pm 11.2 7.9 -4.0 34 5.8 E 4 13 2 7 1024.3 1023.5 0.0
28/09:30pm 11.9 9.2 -2.7 36 5.8 ENE 2 9 1 5 1024.3 1023.5 0.0
28/09:00pm 12.9 9.2 -3.3 32 6.4 SE 7 9 4 5 1024.2 1023.4 0.0
28/08:30pm 14.0 9.7 -4.9 26 7.3 SE 9 11 5 6 1023.9 1023.1 0.0
28/08:00pm 14.1 9.4 -5.1 26 7.4 SE 11 11 6 6 1023.6 1022.9 0.0
28/07:30pm 15.4 10.6 -6.0 22 8.2 SE 11 13 6 7 1023.2 1022.4 0.0
28/07:00pm 16.7 11.5 -5.9 21 8.8 SE 13 15 7 8 1022.9 1022.1 0.0
28/06:30pm 19.2 13.5 -7.3 16 10.3 SE 15 19 8 10 1022.5 1021.7 0.0
28/06:00pm 21.1 14.7 -7.0 14 11.2 ESE 19 28 10 15 1022.2 1021.4 0.0
28/05:30pm 22.0 15.5 -7.8 13 11.8 SE 19 28 10 15 1022.1 1021.3 0.0
28/05:00pm 22.5 16.1 -6.8 13 11.9 ENE 19 22 10 12 1021.9 1021.1 0.0
28/04:30pm 22.6 16.1 -7.7 12 12.1 ENE 19 26 10 14 1021.9 1021.1 0.0
28/04:00pm 23.0 17.6 -8.2 12 12.4 ESE 13 24 7 13 1022.0 1021.2 0.0
28/03:30pm 22.8 18.0 -6.0 14 11.9 ENE 11 19 6 10 1022.1 1021.3 0.0
28/03:00pm 23.2 16.7 -7.6 12 12.4 E 19 30 10 16 1022.4 1021.6 0.0
28/02:30pm 22.6 15.2 -7.1 13 12.0 ENE 24 30 13 16 1022.6 1021.8 0.0
28/02:00pm 22.2 15.3 -6.6 14 11.7 ENE 22 33 12 18 1023.1 1022.3 0.0
28/01:30pm 21.2 14.9 -6.2 15 11.1 E 19 28 10 15 1023.5 1022.8 0.0
28/01:00pm 21.2 15.3 -5.7 16 11.1 ESE 17 28 9 15 1024.1 1023.3 0.0
28/12:30pm 20.2 13.2 -3.8 19 10.1 ENE 24 32 13 17 1024.6 1023.8 0.0
28/12:00pm 20.3 12.4 -5.0 18 10.4 ENE 28 37 15 20 1025.1 1024.4 0.0
28/11:30am 19.9 13.8 -4.1 19 10.0 ESE 19 28 10 15 1025.5 1024.8 0.0
28/11:00am 18.6 10.7 -4.4 20 9.5 E 28 35 15 19 1025.8 1025.0 0.0
28/10:30am 19.0 12.0 -3.9 21 9.5 E 24 32 13 17 1026.0 1025.2 0.0
28/10:00am 17.7 10.6 -4.1 22 8.9 ESE 24 32 13 17 1025.9 1025.1 0.0
28/09:30am 16.4 10.6 -4.7 23 8.4 E 17 26 9 14 1025.7 1024.9 0.0
28/09:00am 14.4 10.7 -5.0 26 7.5 E 6 13 3 7 1025.5 1024.8 0.0
28/08:30am 11.0 8.5 -4.3 34 5.8 CALM 0 0 0 0 1025.4 1024.7 0.0
28/08:00am 7.9 4.1 -5.7 37 4.8 WNW 6 7 3 4 1025.1 1024.4 0.0
28/07:30am 4.5 0.0 -7.2 42 3.8 W 9 9 5 5 1024.9 1024.1 0.0
28/07:00am 2.6 -2.2 -6.2 52 3.0 WNW 11 11 6 6 1024.6 1023.8 0.0
28/06:30am 3.7 -0.7 -6.0 49 3.2 NW 9 9 5 5 1024.3 1023.5 0.0
28/06:00am 3.3 -1.2 -6.6 48 3.2 WNW 9 11 5 6 1024.2 1023.4 0.0
28/05:30am 3.4 -1.4 -6.0 50 3.1 WNW 11 13 6 7 1023.9 1023.1 0.0
28/05:00am 5.0 0.5 -6.8 42 3.9 NW 9 11 5 6 1023.6 1022.9 0.0
28/04:30am 4.5 0.2 -5.1 50 3.3 NW 9 11 5 6 1023.6 1022.9 0.0
28/04:00am 4.9 0.7 -7.4 40 4.0 WNW 7 9 4 5 1023.6 1022.9 0.0
28/03:30am 4.6 0.5 -6.2 45 3.6 WNW 7 9 4 5 1023.6 1022.9 0.0
28/03:00am 5.7 1.2 -6.9 40 4.2 WNW 9 9 5 5 1023.6 1022.9 0.0
28/02:30am 5.8 1.2 -7.7 37 4.4 WNW 9 9 5 5 1023.9 1023.1 0.0
28/02:00am 7.0 2.9 -6.9 36 4.7 WNW 7 9 4 5 1024.3 1023.5 0.0
28/01:30am 7.6 2.7 -6.7 35 4.9 NW 11 13 6 7 1024.2 1023.4 0.0
28/01:00am 7.2 2.6 -7.9 33 5.0 WNW 9 9 5 5 1024.3 1023.5 0.0
28/12:30am 6.5 2.7 -5.6 41 4.2 WNW 6 9 3 5 1024.3 1023.5 0.0
28/12:00am 7.7 4.9 -7.0 34 5.0 CALM 0 0 0 0 1024.5 1023.7 0.0
 
Date/Time
CST
Temp
°C
App
Temp
°C
Dew
Point
Rel
Hum
%
Delta-T
°C
Wind Press
QNH
hPa
Press
MSL
hPa
Rain
since 9 am
mm
Dir
 
Spd
km/h
Gust
km/h
Spd
kts
Gust
kts
27/11:30pm 8.9 6.0 -7.5 30 5.6 CALM 0 0 0 0 1024.7 1023.9 0.0
27/11:00pm 10.3 7.5 -6.5 30 6.0 CALM 0 0 0 0 1024.5 1023.7 0.0
27/10:30pm 9.9 7.1 -7.4 29 6.0 CALM 0 0 0 0 1024.5 1023.7 0.0
27/10:00pm 11.1 8.4 -6.3 29 6.3 CALM 0 0 0 0 1024.5 1023.7 0.0
27/09:30pm 11.9 8.8 -6.5 27 6.7 SE 2 6 1 3 1024.3 1023.5 0.0
27/09:00pm 12.1 7.8 -4.4 31 6.3 SE 9 11 5 6 1024.1 1023.3 0.0
27/08:30pm 12.2 7.4 -6.4 26 6.8 SE 11 11 6 6 1024.0 1023.2 0.0
27/08:00pm 13.7 8.7 -8.0 21 7.8 SE 11 13 6 7 1023.3 1022.5 0.0
27/07:30pm 14.2 8.8 -8.4 20 8.1 SE 13 13 7 7 1022.9 1022.1 0.0
27/07:00pm 16.3 10.8 -9.1 16 9.2 SE 13 15 7 8 1022.7 1021.9 0.0
27/06:30pm 18.9 13.3 -10.7 12 10.7 SE 13 17 7 9 1022.3 1021.5 0.0
27/06:00pm 20.7 13.7 -12.2 10 11.8 SE 20 30 11 16 1022.0 1021.2 0.0
27/05:30pm 21.7 14.8 -13.1 8 12.4 SE 19 26 10 14 1021.9 1021.1 0.0
27/05:00pm 22.4 15.3 -13.5 8 12.8 SE 20 30 11 16 1021.9 1021.1 0.0
27/04:30pm 22.5 15.4 -13.0 8 12.8 ESE 20 26 11 14 1021.8 1020.9 0.0
27/04:00pm 23.2 16.5 -16.3 6 13.5 SE 17 22 9 12 1022.0 1021.2 0.0
27/03:30pm 23.6 17.1 -13.3 7 13.4 ESE 17 26 9 14 1021.8 1020.9 0.0
27/03:00pm 22.5 15.4 -13.0 8 12.8 SE 20 26 11 14 1022.0 1021.2 0.0
27/02:30pm 23.0 16.2 -12.6 8 13.0 SE 19 28 10 15 1022.1 1021.3 0.0
27/02:00pm 22.4 15.9 -12.6 8 12.7 ESE 17 26 9 14 1022.4 1021.6 0.0
27/01:30pm 22.1 14.7 -12.3 9 12.5 E 22 32 12 17 1022.7 1021.9 0.0
27/01:00pm 21.6 14.7 -10.4 11 12.0 E 20 30 11 16 1023.1 1022.3 0.0
27/12:30pm 21.5 14.1 -12.3 9 12.2 E 22 32 12 17 1023.5 1022.8 0.0
27/12:00pm 21.1 12.9 -12.3 9 12.0 E 26 35 14 19 1024.0 1023.2 0.0
27/11:30am 20.5 11.6 -12.4 10 11.7 E 30 37 16 20 1024.5 1023.7 0.0
27/11:00am 20.7 12.8 -15.0 8 12.2 E 24 33 13 18 1024.7 1023.9 0.0
27/10:30am 19.6 12.5 -14.4 9 11.5 E 20 28 11 15 1024.9 1024.1 0.0
27/10:00am 18.3 10.4 -13.8 10 10.9 E 24 32 13 17 1024.9 1024.1 0.0
27/09:30am 16.8 11.2 -11.5 13 9.8 E 13 19 7 10 1025.0 1024.3 0.0
27/09:00am 15.2 12.1 -10.5 16 8.9 CALM 0 0 0 0 1024.8 1024.0 0.0
27/08:30am 10.7 7.2 -10.4 21 6.9 W 2 6 1 3 1024.5 1023.7 0.0
27/08:00am 7.6 3.4 -10.2 27 5.6 WNW 6 7 3 4 1024.4 1023.6 0.0

Other Formats:

Comma delimited format used in spreadsheet applications
http://www.bom.gov.au/fwo/IDD60801/IDD60801.94326.axf

JavaScript Object Notation format (JSON) in row-major order
http://www.bom.gov.au/fwo/IDD60801/IDD60801.94326.json